sensor_id;sensor_type;location;lat;lon;timestamp;pressure;altitude;pressure_sealevel;temperature;humidity
23164;BME280;31429;42.674;23.350;2022-11-10T00:00:33;95398.91;;;7.27;100.00
23164;BME280;31429;42.674;23.350;2022-11-10T00:01:34;95402.38;;;7.21;100.00
23164;BME280;31429;42.674;23.350;2022-11-10T00:02:34;95404.19;;;7.15;100.00
23164;BME280;31429;42.674;23.350;2022-11-10T00:03:37;95397.50;;;7.09;100.00
23164;BME280;31429;42.674;23.350;2022-11-10T00:04:37;95400.94;;;7.05;100.00
23164;BME280;31429;42.674;23.350;2022-11-10T00:05:38;95399.31;;;7.00;100.00
23164;BME280;31429;42.674;23.350;2022-11-10T00:06:39;95395.09;;;6.99;100.00
23164;BME280;31429;42.674;23.350;2022-11-10T00:07:40;95395.06;;;7.00;100.00
23164;BME280;31429;42.674;23.350;2022-11-10T00:08:41;95395.81;;;7.07;100.00
23164;BME280;31429;42.674;23.350;2022-11-10T00:09:43;95395.03;;;7.03;100.00
23164;BME280;31429;42.674;23.350;2022-11-10T00:10:43;95372.41;;;6.85;100.00
23164;BME280;31429;42.674;23.350;2022-11-10T00:12:01;95374.25;;;6.74;100.00
23164;BME280;31429;42.674;23.350;2022-11-10T00:13:02;95398.59;;;6.91;100.00
23164;BME280;31429;42.674;23.350;2022-11-10T00:14:02;95389.31;;;6.87;100.00
23164;BME280;31429;42.674;23.350;2022-11-10T00:15:21;95393.50;;;6.91;100.00
23164;BME280;31429;42.674;23.350;2022-11-10T00:16:42;95401.13;;;6.91;100.00
23164;BME280;31429;42.674;23.350;2022-11-10T00:18:01;95386.09;;;6.73;100.00
23164;BME280;31429;42.674;23.350;2022-11-10T00:19:01;95403.78;;;6.82;100.00
23164;BME280;31429;42.674;23.350;2022-11-10T00:20:03;95408.06;;;6.80;100.00
23164;BME280;31429;42.674;23.350;2022-11-10T00:21:05;95395.38;;;6.77;100.00
23164;BME280;31429;42.674;23.350;2022-11-10T00:22:06;95381.13;;;6.66;100.00
23164;BME280;31429;42.674;23.350;2022-11-10T00:23:06;95401.31;;;6.78;100.00
23164;BME280;31429;42.674;23.350;2022-11-10T00:24:07;95387.03;;;6.68;100.00
23164;BME280;31429;42.674;23.350;2022-11-10T00:25:10;95376.91;;;6.65;100.00
23164;BME280;31429;42.674;23.350;2022-11-10T00:26:14;95397.91;;;6.79;100.00
23164;BME280;31429;42.674;23.350;2022-11-10T00:27:18;95397.13;;;6.75;100.00
23164;BME280;31429;42.674;23.350;2022-11-10T00:28:22;95377.78;;;6.64;100.00
23164;BME280;31429;42.674;23.350;2022-11-10T00:29:22;95399.69;;;6.72;100.00
23164;BME280;31429;42.674;23.350;2022-11-10T00:30:23;95397.97;;;6.73;100.00
23164;BME280;31429;42.674;23.350;2022-11-10T00:31:24;95399.72;;;6.68;100.00
23164;BME280;31429;42.674;23.350;2022-11-10T00:32:27;95396.38;;;6.64;100.00
23164;BME280;31429;42.674;23.350;2022-11-10T00:33:28;95361.09;;;6.43;100.00
23164;BME280;31429;42.674;23.350;2022-11-10T00:34:29;95383.00;;;6.52;100.00
23164;BME280;31429;42.674;23.350;2022-11-10T00:35:30;95396.41;;;6.63;100.00
23164;BME280;31429;42.674;23.350;2022-11-10T00:36:33;95397.22;;;6.65;100.00
23164;BME280;31429;42.674;23.350;2022-11-10T00:37:36;95376.06;;;6.64;100.00
23164;BME280;31429;42.674;23.350;2022-11-10T00:38:37;95385.34;;;6.68;100.00
23164;BME280;31429;42.674;23.350;2022-11-10T00:39:38;95366.03;;;6.54;100.00
23164;BME280;31429;42.674;23.350;2022-11-10T00:40:40;95391.38;;;6.60;100.00
23164;BME280;31429;42.674;23.350;2022-11-10T00:41:41;95386.31;;;6.57;100.00
23164;BME280;31429;42.674;23.350;2022-11-10T00:42:41;95384.63;;;6.56;100.00
23164;BME280;31429;42.674;23.350;2022-11-10T00:43:42;95395.63;;;6.58;100.00
23164;BME280;31429;42.674;23.350;2022-11-10T00:44:43;95385.47;;;6.58;100.00
23164;BME280;31429;42.674;23.350;2022-11-10T00:45:43;95386.34;;;6.55;100.00
23164;BME280;31429;42.674;23.350;2022-11-10T00:46:44;95385.53;;;6.52;100.00
23164;BME280;31429;42.674;23.350;2022-11-10T00:47:45;95390.63;;;6.52;100.00
23164;BME280;31429;42.674;23.350;2022-11-10T00:48:46;95333.50;;;6.16;100.00
23164;BME280;31429;42.674;23.350;2022-11-10T00:49:46;95380.50;;;6.47;100.00
23164;BME280;31429;42.674;23.350;2022-11-10T00:50:47;95380.47;;;6.50;100.00
23164;BME280;31429;42.674;23.350;2022-11-10T00:51:48;95382.91;;;6.61;100.00
23164;BME280;31429;42.674;23.350;2022-11-10T00:52:48;95373.44;;;6.70;100.00
23164;BME280;31429;42.674;23.350;2022-11-10T00:53:50;95374.25;;;6.75;100.00
23164;BME280;31429;42.674;23.350;2022-11-10T00:54:50;95320.59;;;6.34;100.00
23164;BME280;31429;42.674;23.350;2022-11-10T00:55:53;95369.53;;;6.47;100.00
23164;BME280;31429;42.674;23.350;2022-11-10T00:56:53;95360.28;;;6.40;100.00
23164;BME280;31429;42.674;23.350;2022-11-10T00:57:54;95375.47;;;6.46;100.00
23164;BME280;31429;42.674;23.350;2022-11-10T00:58:55;95375.50;;;6.44;100.00
23164;BME280;31429;42.674;23.350;2022-11-10T00:59:55;95355.31;;;6.32;100.00
23164;BME280;31429;42.674;23.350;2022-11-10T01:00:59;95354.50;;;6.30;100.00
23164;BME280;31429;42.674;23.350;2022-11-10T01:02:01;95368.75;;;6.40;100.00
23164;BME280;31429;42.674;23.350;2022-11-10T01:03:02;95371.16;;;6.52;100.00
23164;BME280;31429;42.674;23.350;2022-11-10T01:04:05;95366.84;;;6.56;100.00
23164;BME280;31429;42.674;23.350;2022-11-10T01:05:06;95373.78;;;6.46;100.00
23164;BME280;31429;42.674;23.350;2022-11-10T01:06:09;95362.03;;;6.36;100.00
23164;BME280;31429;42.674;23.350;2022-11-10T01:07:10;95365.41;;;6.36;100.00
23164;BME280;31429;42.674;23.350;2022-11-10T01:08:11;95372.19;;;6.36;100.00
23164;BME280;31429;42.674;23.350;2022-11-10T01:09:12;95377.28;;;6.33;100.00
23164;BME280;31429;42.674;23.350;2022-11-10T01:10:12;95362.19;;;6.22;100.00
23164;BME280;31429;42.674;23.350;2022-11-10T01:11:16;95376.47;;;6.31;100.00
23164;BME280;31429;42.674;23.350;2022-11-10T01:12:17;95363.06;;;6.20;100.00
23164;BME280;31429;42.674;23.350;2022-11-10T01:13:18;95357.22;;;6.15;100.00
23164;BME280;31429;42.674;23.350;2022-11-10T01:14:19;95349.69;;;6.07;100.00
23164;BME280;31429;42.674;23.350;2022-11-10T01:15:19;95370.69;;;6.21;100.00
23164;BME280;31429;42.674;23.350;2022-11-10T01:16:23;95352.13;;;6.13;100.00
23164;BME280;31429;42.674;23.350;2022-11-10T01:17:24;95373.16;;;6.26;100.00
23164;BME280;31429;42.674;23.350;2022-11-10T01:18:24;95372.34;;;6.24;100.00
23164;BME280;31429;42.674;23.350;2022-11-10T01:19:25;95373.19;;;6.23;100.00
23164;BME280;31429;42.674;23.350;2022-11-10T01:20:26;95365.56;;;6.23;100.00
23164;BME280;31429;42.674;23.350;2022-11-10T01:21:28;95367.22;;;6.25;100.00
23164;BME280;31429;42.674;23.350;2022-11-10T01:22:29;95373.94;;;6.31;100.00
23164;BME280;31429;42.674;23.350;2022-11-10T01:23:30;95370.56;;;6.30;100.00
23164;BME280;31429;42.674;23.350;2022-11-10T01:24:31;95365.50;;;6.29;100.00
23164;BME280;31429;42.674;23.350;2022-11-10T01:25:32;95371.47;;;6.25;100.00
23164;BME280;31429;42.674;23.350;2022-11-10T01:26:34;95366.41;;;6.23;100.00
23164;BME280;31429;42.674;23.350;2022-11-10T01:27:34;95368.97;;;6.23;100.00
23164;BME280;31429;42.674;23.350;2022-11-10T01:28:36;95371.50;;;6.23;100.00
23164;BME280;31429;42.674;23.350;2022-11-10T01:29:36;95340.34;;;6.08;100.00
23164;BME280;31429;42.674;23.350;2022-11-10T01:30:37;95364.75;;;6.19;100.00
23164;BME280;31429;42.674;23.350;2022-11-10T01:31:38;95369.00;;;6.20;100.00
23164;BME280;31429;42.674;23.350;2022-11-10T01:32:38;95367.28;;;6.21;100.00
23164;BME280;31429;42.674;23.350;2022-11-10T01:33:39;95347.16;;;6.07;100.00
23164;BME280;31429;42.674;23.350;2022-11-10T01:34:40;95366.44;;;6.20;100.00
23164;BME280;31429;42.674;23.350;2022-11-10T01:35:41;95363.06;;;6.20;100.00
23164;BME280;31429;42.674;23.350;2022-11-10T01:36:41;95339.50;;;6.09;100.00
23164;BME280;31429;42.674;23.350;2022-11-10T01:37:42;95360.53;;;6.20;100.00
23164;BME280;31429;42.674;23.350;2022-11-10T01:38:43;95358.84;;;6.19;100.00
23164;BME280;31429;42.674;23.350;2022-11-10T01:39:43;95368.97;;;6.22;100.00
23164;BME280;31429;42.674;23.350;2022-11-10T01:40:44;95370.59;;;6.29;100.00
23164;BME280;31429;42.674;23.350;2022-11-10T01:41:46;95359.56;;;6.31;100.00
23164;BME280;31429;42.674;23.350;2022-11-10T01:42:50;95358.72;;;6.31;100.00
23164;BME280;31429;42.674;23.350;2022-11-10T01:43:51;95297.44;;;5.88;100.00
23164;BME280;31429;42.674;23.350;2022-11-10T01:46:28;95362.22;;;6.21;100.00
23164;BME280;31429;42.674;23.350;2022-11-10T01:47:29;95367.31;;;6.18;100.00
23164;BME280;31429;42.674;23.350;2022-11-10T01:48:32;95352.16;;;6.12;100.00
23164;BME280;31429;42.674;23.350;2022-11-10T01:49:35;95355.59;;;6.09;100.00
23164;BME280;31429;42.674;23.350;2022-11-10T01:50:38;95364.00;;;6.13;100.00
23164;BME280;31429;42.674;23.350;2022-11-10T01:51:42;95364.00;;;6.13;100.00
23164;BME280;31429;42.674;23.350;2022-11-10T01:52:46;95358.09;;;6.11;100.00
23164;BME280;31429;42.674;23.350;2022-11-10T01:53:49;95364.84;;;6.12;100.00
23164;BME280;31429;42.674;23.350;2022-11-10T01:54:50;95357.31;;;6.07;100.00
23164;BME280;31429;42.674;23.350;2022-11-10T01:55:51;95365.69;;;6.11;100.00
23164;BME280;31429;42.674;23.350;2022-11-10T01:56:57;95361.50;;;6.08;100.00
23164;BME280;31429;42.674;23.350;2022-11-10T01:57:59;95370.00;;;6.07;100.00
23164;BME280;31429;42.674;23.350;2022-11-10T01:59:05;95359.03;;;6.02;100.00
23164;BME280;31429;42.674;23.350;2022-11-10T02:00:10;95359.06;;;6.01;100.00
23164;BME280;31429;42.674;23.350;2022-11-10T02:01:11;95360.69;;;6.05;100.00
23164;BME280;31429;42.674;23.350;2022-11-10T02:02:17;95359.03;;;6.04;100.00
23164;BME280;31429;42.674;23.350;2022-11-10T02:03:24;95341.41;;;5.89;100.00
23164;BME280;31429;42.674;23.350;2022-11-10T02:04:29;95361.63;;;5.98;100.00
23164;BME280;31429;42.674;23.350;2022-11-10T02:05:30;95360.03;;;5.89;100.00
23164;BME280;31429;42.674;23.350;2022-11-10T02:06:33;95370.94;;;5.97;100.00
23164;BME280;31429;42.674;23.350;2022-11-10T02:07:37;95360.00;;;5.91;100.00
23164;BME280;31429;42.674;23.350;2022-11-10T02:08:38;95357.41;;;5.97;100.00
23164;BME280;31429;42.674;23.350;2022-11-10T02:09:40;95337.22;;;5.85;100.00
23164;BME280;31429;42.674;23.350;2022-11-10T02:10:41;95358.25;;;5.99;100.00
23164;BME280;31429;42.674;23.350;2022-11-10T02:11:43;95338.91;;;5.86;100.00
23164;BME280;31429;42.674;23.350;2022-11-10T02:12:46;95341.47;;;5.81;100.00
23164;BME280;31429;42.674;23.350;2022-11-10T02:13:48;95360.03;;;5.88;100.00
23164;BME280;31429;42.674;23.350;2022-11-10T02:14:48;95340.72;;;5.71;100.00
23164;BME280;31429;42.674;23.350;2022-11-10T02:15:49;95364.28;;;5.87;100.00
23164;BME280;31429;42.674;23.350;2022-11-10T02:16:50;95362.59;;;5.85;100.00
23164;BME280;31429;42.674;23.350;2022-11-10T02:17:51;95373.56;;;5.84;100.00
23164;BME280;31429;42.674;23.350;2022-11-10T02:18:51;95365.97;;;5.82;100.00
23164;BME280;31429;42.674;23.350;2022-11-10T02:19:52;95365.97;;;5.82;100.00
23164;BME280;31429;42.674;23.350;2022-11-10T02:20:54;95352.56;;;5.69;100.00
23164;BME280;31429;42.674;23.350;2022-11-10T02:21:55;95369.34;;;5.82;100.00
23164;BME280;31429;42.674;23.350;2022-11-10T02:22:55;95371.03;;;5.84;100.00
23164;BME280;31429;42.674;23.350;2022-11-10T02:23:56;95350.84;;;5.74;100.00
23164;BME280;31429;42.674;23.350;2022-11-10T02:24:57;95376.13;;;5.84;100.00
23164;BME280;31429;42.674;23.350;2022-11-10T02:25:58;95376.97;;;5.84;100.00
23164;BME280;31429;42.674;23.350;2022-11-10T02:26:59;95374.41;;;5.89;100.00
23164;BME280;31429;42.674;23.350;2022-11-10T02:27:59;95375.19;;;5.95;100.00
23164;BME280;31429;42.674;23.350;2022-11-10T02:29:00;95373.53;;;5.91;100.00
23164;BME280;31429;42.674;23.350;2022-11-10T02:30:01;95380.28;;;5.92;100.00
23164;BME280;31429;42.674;23.350;2022-11-10T02:31:03;95355.88;;;5.77;100.00
23164;BME280;31429;42.674;23.350;2022-11-10T02:32:04;95375.28;;;5.85;100.00
23164;BME280;31429;42.674;23.350;2022-11-10T02:33:04;95355.06;;;5.74;100.00
23164;BME280;31429;42.674;23.350;2022-11-10T02:34:05;95380.34;;;5.85;100.00
23164;BME280;31429;42.674;23.350;2022-11-10T02:35:06;95380.34;;;5.83;100.00
23164;BME280;31429;42.674;23.350;2022-11-10T02:36:09;95382.88;;;5.85;100.00
23164;BME280;31429;42.674;23.350;2022-11-10T02:37:10;95381.19;;;5.84;100.00
23164;BME280;31429;42.674;23.350;2022-11-10T02:38:10;95382.03;;;5.82;100.00
23164;BME280;31429;42.674;23.350;2022-11-10T02:39:11;95381.22;;;5.80;100.00
23164;BME280;31429;42.674;23.350;2022-11-10T02:40:12;95349.31;;;5.58;100.00
23164;BME280;31429;42.674;23.350;2022-11-10T02:41:12;95385.41;;;5.83;100.00
23164;BME280;31429;42.674;23.350;2022-11-10T02:42:13;95382.03;;;5.82;100.00
23164;BME280;31429;42.674;23.350;2022-11-10T02:43:15;95388.81;;;5.84;100.00
23164;BME280;31429;42.674;23.350;2022-11-10T02:44:16;95383.72;;;5.84;100.00
23164;BME280;31429;42.674;23.350;2022-11-10T02:45:17;95368.53;;;5.79;100.00
23164;BME280;31429;42.674;23.350;2022-11-10T02:46:17;95366.81;;;5.82;100.00
23164;BME280;31429;42.674;23.350;2022-11-10T02:47:18;95387.88;;;5.94;100.00
23164;BME280;31429;42.674;23.350;2022-11-10T02:48:19;95387.94;;;5.88;100.00
23164;BME280;31429;42.674;23.350;2022-11-10T02:49:19;95382.03;;;5.87;100.00
23164;BME280;31429;42.674;23.350;2022-11-10T02:50:20;95382.84;;;5.89;100.00
23164;BME280;31429;42.674;23.350;2022-11-10T02:51:22;95388.81;;;5.87;100.00
23164;BME280;31429;42.674;23.350;2022-11-10T02:52:23;95384.56;;;5.82;100.00
23164;BME280;31429;42.674;23.350;2022-11-10T02:53:23;95386.28;;;5.79;100.00
23164;BME280;31429;42.674;23.350;2022-11-10T02:54:24;95385.47;;;5.77;100.00
23164;BME280;31429;42.674;23.350;2022-11-10T02:55:24;95389.69;;;5.78;100.00
23164;BME280;31429;42.674;23.350;2022-11-10T02:56:25;95392.22;;;5.79;100.00
23164;BME280;31429;42.674;23.350;2022-11-10T02:57:26;95393.88;;;5.82;100.00
23164;BME280;31429;42.674;23.350;2022-11-10T02:58:26;95382.88;;;5.86;100.00
23164;BME280;31429;42.674;23.350;2022-11-10T02:59:27;95382.84;;;5.92;100.00
23164;BME280;31429;42.674;23.350;2022-11-10T03:00:28;95376.97;;;5.87;100.00
23164;BME280;31429;42.674;23.350;2022-11-10T03:01:28;95388.75;;;5.93;100.00
23164;BME280;31429;42.674;23.350;2022-11-10T03:02:29;95387.13;;;5.86;100.00
23164;BME280;31429;42.674;23.350;2022-11-10T03:03:30;95387.09;;;5.82;100.00
23164;BME280;31429;42.674;23.350;2022-11-10T03:04:30;95393.00;;;5.88;100.00
23164;BME280;31429;42.674;23.350;2022-11-10T03:05:31;95392.09;;;5.93;100.00
23164;BME280;31429;42.674;23.350;2022-11-10T03:06:33;95381.94;;;5.96;100.00
23164;BME280;31429;42.674;23.350;2022-11-10T03:07:34;95380.34;;;5.86;100.00
23164;BME280;31429;42.674;23.350;2022-11-10T03:08:34;95393.88;;;5.85;100.00
23164;BME280;31429;42.674;23.350;2022-11-10T03:09:35;95360.22;;;5.65;100.00
23164;BME280;31429;42.674;23.350;2022-11-10T03:10:36;95391.38;;;5.77;100.00
23164;BME280;31429;42.674;23.350;2022-11-10T03:11:36;95393.97;;;5.76;100.00
23164;BME280;31429;42.674;23.350;2022-11-10T03:12:37;95392.22;;;5.76;100.00
23164;BME280;31429;42.674;23.350;2022-11-10T03:13:37;95374.59;;;5.67;100.00
23164;BME280;31429;42.674;23.350;2022-11-10T03:14:38;95392.25;;;5.78;100.00
23164;BME280;31429;42.674;23.350;2022-11-10T03:15:39;95390.53;;;5.77;100.00
23164;BME280;31429;42.674;23.350;2022-11-10T03:16:39;95389.66;;;5.79;100.00
23164;BME280;31429;42.674;23.350;2022-11-10T03:17:40;95386.28;;;5.87;100.00
23164;BME280;31429;42.674;23.350;2022-11-10T03:18:41;95347.41;;;5.77;100.00
23164;BME280;31429;42.674;23.350;2022-11-10T03:19:41;95393.75;;;6.00;100.00
23164;BME280;31429;42.674;23.350;2022-11-10T03:20:45;95393.00;;;5.88;100.00
23164;BME280;31429;42.674;23.350;2022-11-10T03:21:47;95390.56;;;5.74;100.00
23164;BME280;31429;42.674;23.350;2022-11-10T03:22:48;95387.22;;;5.72;100.00
23164;BME280;31429;42.674;23.350;2022-11-10T03:23:48;95380.59;;;5.57;100.00
23164;BME280;31429;42.674;23.350;2022-11-10T03:24:49;95391.47;;;5.70;100.00
23164;BME280;31429;42.674;23.350;2022-11-10T03:25:50;95398.22;;;5.68;100.00
23164;BME280;31429;42.674;23.350;2022-11-10T03:26:50;95399.91;;;5.70;100.00
23164;BME280;31429;42.674;23.350;2022-11-10T03:27:51;95397.34;;;5.73;100.00
23164;BME280;31429;42.674;23.350;2022-11-10T03:28:51;95377.19;;;5.58;100.00
23164;BME280;31429;42.674;23.350;2022-11-10T03:29:52;95395.69;;;5.68;100.00
23164;BME280;31429;42.674;23.350;2022-11-10T03:30:53;95401.59;;;5.71;100.00
23164;BME280;31429;42.674;23.350;2022-11-10T03:31:53;95399.03;;;5.74;100.00
23164;BME280;31429;42.674;23.350;2022-11-10T03:32:54;95400.69;;;5.77;100.00
23164;BME280;31429;42.674;23.350;2022-11-10T03:33:55;95371.25;;;5.59;100.00
23164;BME280;31429;42.674;23.350;2022-11-10T03:34:56;95401.59;;;5.71;100.00
23164;BME280;31429;42.674;23.350;2022-11-10T03:35:56;95394.03;;;5.67;100.00
23164;BME280;31429;42.674;23.350;2022-11-10T03:36:58;95396.59;;;5.64;100.00
23164;BME280;31429;42.674;23.350;2022-11-10T03:37:59;95386.56;;;5.50;100.00
23164;BME280;31429;42.674;23.350;2022-11-10T03:39:00;95406.72;;;5.62;100.00
23164;BME280;31429;42.674;23.350;2022-11-10T03:40:01;95400.88;;;5.59;100.00
23164;BME280;31429;42.674;23.350;2022-11-10T03:41:01;95403.41;;;5.59;100.00
23164;BME280;31429;42.674;23.350;2022-11-10T03:42:02;95398.34;;;5.56;100.00
23164;BME280;31429;42.674;23.350;2022-11-10T03:43:03;95374.81;;;5.42;100.00
23164;BME280;31429;42.674;23.350;2022-11-10T03:44:03;95403.44;;;5.53;100.00
23164;BME280;31429;42.674;23.350;2022-11-10T03:45:05;95404.28;;;5.55;100.00
23164;BME280;31429;42.674;23.350;2022-11-10T03:46:06;95395.88;;;5.50;100.00
23164;BME280;31429;42.674;23.350;2022-11-10T03:47:07;95406.84;;;5.52;100.00
23164;BME280;31429;42.674;23.350;2022-11-10T03:48:08;95404.31;;;5.49;100.00
23164;BME280;31429;42.674;23.350;2022-11-10T03:49:09;95385.84;;;5.36;100.00
23164;BME280;31429;42.674;23.350;2022-11-10T03:50:09;95392.59;;;5.36;100.00
23164;BME280;31429;42.674;23.350;2022-11-10T03:51:10;95404.34;;;5.46;100.00
23164;BME280;31429;42.674;23.350;2022-11-10T03:52:12;95408.53;;;5.48;100.00
23164;BME280;31429;42.674;23.350;2022-11-10T03:53:13;95411.91;;;5.52;100.00
23164;BME280;31429;42.674;23.350;2022-11-10T03:54:13;95404.19;;;5.64;100.00
23164;BME280;31429;42.674;23.350;2022-11-10T03:55:16;95366.91;;;5.70;100.00
23164;BME280;31429;42.674;23.350;2022-11-10T03:56:17;95387.06;;;5.92;100.00
23164;BME280;31429;42.674;23.350;2022-11-10T03:57:18;95404.84;;;5.89;100.00
23164;BME280;31429;42.674;23.350;2022-11-10T03:58:19;95413.41;;;5.74;100.00
23164;BME280;31429;42.674;23.350;2022-11-10T03:59:19;95410.09;;;5.67;100.00
23164;BME280;31429;42.674;23.350;2022-11-10T04:00:20;95368.91;;;5.38;100.00
23164;BME280;31429;42.674;23.350;2022-11-10T04:01:21;95389.94;;;5.49;100.00
23164;BME280;31429;42.674;23.350;2022-11-10T04:02:23;95397.47;;;5.60;100.00
23164;BME280;31429;42.674;23.350;2022-11-10T04:03:23;95418.50;;;5.72;100.00
23164;BME280;31429;42.674;23.350;2022-11-10T04:04:24;95414.34;;;5.64;100.00
23164;BME280;31429;42.674;23.350;2022-11-10T04:05:43;95394.22;;;5.44;100.00
23164;BME280;31429;42.674;23.350;2022-11-10T04:07:02;95413.53;;;5.60;100.00
23164;BME280;31429;42.674;23.350;2022-11-10T04:08:22;95417.41;;;5.99;100.00
23164;BME280;31429;42.674;23.350;2022-11-10T04:09:41;95409.81;;;5.99;100.00
23164;BME280;31429;42.674;23.350;2022-11-10T04:10:42;95413.34;;;5.82;100.00
23164;BME280;31429;42.674;23.350;2022-11-10T04:11:43;95419.41;;;5.65;100.00
23164;BME280;31429;42.674;23.350;2022-11-10T04:13:02;95419.50;;;5.55;100.00
23164;BME280;31429;42.674;23.350;2022-11-10T04:14:21;95396.00;;;5.33;100.00
23164;BME280;31429;42.674;23.350;2022-11-10T04:15:40;95422.97;;;5.42;100.00
23164;BME280;31429;42.674;23.350;2022-11-10T04:16:43;95404.47;;;5.29;100.00
23164;BME280;31429;42.674;23.350;2022-11-10T04:17:48;95422.91;;;5.52;100.00
23164;BME280;31429;42.674;23.350;2022-11-10T04:18:49;95412.50;;;5.81;100.00
23164;BME280;31429;42.674;23.350;2022-11-10T04:19:49;95421.59;;;6.06;100.00
23164;BME280;31429;42.674;23.350;2022-11-10T04:20:51;95414.84;;;6.04;100.00
23164;BME280;31429;42.674;23.350;2022-11-10T04:21:52;95380.53;;;5.63;100.00
23164;BME280;31429;42.674;23.350;2022-11-10T04:22:53;95420.28;;;5.64;100.00
23164;BME280;31429;42.674;23.350;2022-11-10T04:24:13;95422.06;;;5.50;100.00
23164;BME280;31429;42.674;23.350;2022-11-10T04:25:14;95429.69;;;5.46;100.00
23164;BME280;31429;42.674;23.350;2022-11-10T04:26:15;95409.41;;;5.50;100.00
23164;BME280;31429;42.674;23.350;2022-11-10T04:27:28;95419.34;;;5.71;100.00
23164;BME280;31429;42.674;23.350;2022-11-10T04:28:28;95419.41;;;5.64;100.00
23164;BME280;31429;42.674;23.350;2022-11-10T04:29:29;95421.22;;;5.50;100.00
23164;BME280;31429;42.674;23.350;2022-11-10T04:30:29;95422.97;;;5.42;100.00
23164;BME280;31429;42.674;23.350;2022-11-10T04:31:32;95428.94;;;5.36;100.00
23164;BME280;31429;42.674;23.350;2022-11-10T04:32:33;95423.03;;;5.33;100.00
23164;BME280;31429;42.674;23.350;2022-11-10T04:33:34;95430.66;;;5.30;100.00
23164;BME280;31429;42.674;23.350;2022-11-10T04:34:35;95425.63;;;5.27;100.00
23164;BME280;31429;42.674;23.350;2022-11-10T04:35:35;95431.56;;;5.24;100.00
23164;BME280;31429;42.674;23.350;2022-11-10T04:36:38;95424.00;;;5.16;100.00
23164;BME280;31429;42.674;23.350;2022-11-10T04:37:39;95431.56;;;5.19;100.00
23164;BME280;31429;42.674;23.350;2022-11-10T04:38:40;95432.44;;;5.18;100.00
23164;BME280;31429;42.674;23.350;2022-11-10T04:39:42;95429.91;;;5.18;100.00
23164;BME280;31429;42.674;23.350;2022-11-10T04:40:43;95427.38;;;5.18;100.00
23164;BME280;31429;42.674;23.350;2022-11-10T04:41:44;95427.34;;;5.17;100.00
23164;BME280;31429;42.674;23.350;2022-11-10T04:42:45;95423.97;;;5.18;100.00
23164;BME280;31429;42.674;23.350;2022-11-10T04:43:45;95408.00;;;5.05;100.00
23164;BME280;31429;42.674;23.350;2022-11-10T04:44:46;95428.25;;;5.08;100.00
23164;BME280;31429;42.674;23.350;2022-11-10T04:45:48;95420.63;;;5.11;100.00
23164;BME280;31429;42.674;23.350;2022-11-10T04:46:48;95424.03;;;5.10;100.00
23164;BME280;31429;42.674;23.350;2022-11-10T04:47:49;95408.00;;;5.02;100.00
23164;BME280;31429;42.674;23.350;2022-11-10T04:48:50;95397.09;;;4.99;100.00
23164;BME280;31429;42.674;23.350;2022-11-10T04:49:51;95423.16;;;5.19;100.00
23164;BME280;31429;42.674;23.350;2022-11-10T04:50:52;95425.66;;;5.17;100.00
23164;BME280;31429;42.674;23.350;2022-11-10T04:51:52;95423.16;;;5.16;100.00
23164;BME280;31429;42.674;23.350;2022-11-10T04:52:53;95422.31;;;5.14;100.00
23164;BME280;31429;42.674;23.350;2022-11-10T04:53:54;95424.00;;;5.15;100.00
23164;BME280;31429;42.674;23.350;2022-11-10T04:54:56;95393.69;;;4.97;100.00
23164;BME280;31429;42.674;23.350;2022-11-10T04:55:56;95429.91;;;5.18;100.00
23164;BME280;31429;42.674;23.350;2022-11-10T04:56:57;95422.25;;;5.23;100.00
23164;BME280;31429;42.674;23.350;2022-11-10T04:57:58;95428.16;;;5.25;100.00
23164;BME280;31429;42.674;23.350;2022-11-10T04:58:59;95424.78;;;5.26;100.00
23164;BME280;31429;42.674;23.350;2022-11-10T04:59:59;95428.19;;;5.20;100.00
23164;BME280;31429;42.674;23.350;2022-11-10T05:01:00;95424.78;;;5.26;100.00
23164;BME280;31429;42.674;23.350;2022-11-10T05:02:00;95390.28;;;5.07;100.00
23164;BME280;31429;42.674;23.350;2022-11-10T05:03:02;95421.31;;;5.38;100.00
23164;BME280;31429;42.674;23.350;2022-11-10T05:04:03;95424.66;;;5.43;100.00
23164;BME280;31429;42.674;23.350;2022-11-10T05:05:05;95428.84;;;5.45;100.00
23164;BME280;31429;42.674;23.350;2022-11-10T05:06:06;95413.69;;;5.38;100.00
23164;BME280;31429;42.674;23.350;2022-11-10T05:07:07;95428.84;;;5.50;100.00
23164;BME280;31429;42.674;23.350;2022-11-10T05:08:08;95429.66;;;5.52;100.00
23164;BME280;31429;42.674;23.350;2022-11-10T05:09:08;95428.75;;;5.57;100.00
23164;BME280;31429;42.674;23.350;2022-11-10T05:10:10;95432.88;;;5.72;100.00
23164;BME280;31429;42.674;23.350;2022-11-10T05:11:12;95405.94;;;5.57;100.00
23164;BME280;31429;42.674;23.350;2022-11-10T05:12:13;95419.41;;;5.67;100.00
23164;BME280;31429;42.674;23.350;2022-11-10T05:13:14;95430.22;;;5.89;100.00
23164;BME280;31429;42.674;23.350;2022-11-10T05:14:14;95435.19;;;6.01;100.00
23164;BME280;31429;42.674;23.350;2022-11-10T05:15:15;95434.16;;;6.20;100.00
23164;BME280;31429;42.674;23.350;2022-11-10T05:16:16;95430.44;;;6.50;100.00
23164;BME280;31429;42.674;23.350;2022-11-10T05:17:16;95434.44;;;6.69;100.00
23164;BME280;31429;42.674;23.350;2022-11-10T05:18:17;95437.03;;;6.66;100.00
23164;BME280;31429;42.674;23.350;2022-11-10T05:19:18;95439.53;;;6.69;100.00
23164;BME280;31429;42.674;23.350;2022-11-10T05:20:19;95429.09;;;6.90;100.00
23164;BME280;31429;42.674;23.350;2022-11-10T05:21:20;95434.06;;;6.99;100.00
23164;BME280;31429;42.674;23.350;2022-11-10T05:22:21;95437.50;;;6.95;100.00
23164;BME280;31429;42.674;23.350;2022-11-10T05:23:21;95424.81;;;6.93;100.00
23164;BME280;31429;42.674;23.350;2022-11-10T05:24:37;95444.06;;;7.10;100.00
23164;BME280;31429;42.674;23.350;2022-11-10T05:25:41;95439.22;;;6.94;100.00